Time;durP1;ratioP1;P1;durP2;ratioP2;P2;SDS_P1;SDS_P2;PMS_P1;PMS_P2;Temp;Humidity;BMP_temperature;BMP_pressure;BME280_temperature;BME280_humidity;BME280_pressure;Samples;Min_cycle;Max_cycle;Signal;HPM_P1;HPM_P2
2020/12/14 00:01:41;;;;;;;48.33;18.10;;;3.00;99.90;;;;;;5014476;28;20617;-65
2020/12/14 00:04:08;;;;;;;45.27;17.00;;;3.00;99.90;;;;;;5015861;28;20210;-65
2020/12/14 00:06:35;;;;;;;44.67;16.27;;;3.00;99.90;;;;;;5013576;28;20721;-66
2020/12/14 00:09:02;;;;;;;50.23;18.23;;;3.00;99.90;;;;;;5031149;28;20538;-65
2020/12/14 00:11:35;;;;;;;59.90;18.20;;;3.10;99.90;;;;;;5036823;28;20201;-65
2020/12/14 00:14:02;;;;;;;51.50;18.10;;;3.10;99.90;;;;;;5021956;28;20305;-65
2020/12/14 00:16:29;;;;;;;51.43;18.57;;;3.10;99.90;;;;;;5024552;28;20268;-65
2020/12/14 00:18:56;;;;;;;42.37;16.87;;;3.10;99.90;;;;;;5066184;28;20573;-65
2020/12/14 00:21:22;;;;;;;44.70;17.43;;;3.10;99.90;;;;;;5073960;28;20251;-65
2020/12/14 00:23:51;;;;;;;45.23;16.67;;;3.20;99.90;;;;;;5071647;28;20220;-65
2020/12/14 00:26:18;;;;;;;43.37;15.93;;;3.10;99.90;;;;;;5032160;28;20295;-66
2020/12/14 00:28:47;;;;;;;48.30;16.53;;;3.20;99.90;;;;;;5027293;28;20206;-65
2020/12/14 00:31:15;;;;;;;53.97;17.80;;;3.20;99.90;;;;;;5027585;28;20211;-65
2020/12/14 00:33:42;;;;;;;47.00;17.87;;;3.20;99.90;;;;;;5028027;28;20217;-66
2020/12/14 00:36:09;;;;;;;47.60;17.50;;;3.10;99.90;;;;;;5033803;28;20229;-66
2020/12/14 00:38:35;;;;;;;46.63;18.50;;;3.20;99.90;;;;;;5025815;28;20612;-66
2020/12/14 00:41:03;;;;;;;44.23;17.03;;;3.20;99.90;;;;;;5032627;28;20644;-66
2020/12/14 00:43:30;;;;;;;53.30;17.83;;;3.10;99.90;;;;;;5027220;28;20198;-66
2020/12/14 00:45:57;;;;;;;51.43;17.33;;;3.10;99.90;;;;;;5055275;28;20303;-65
2020/12/14 00:48:24;;;;;;;50.63;17.50;;;3.20;99.90;;;;;;5055457;28;20254;-66
2020/12/14 00:50:50;;;;;;;46.10;17.43;;;3.20;99.90;;;;;;5061332;28;20197;-66
2020/12/14 00:53:17;;;;;;;41.63;16.03;;;3.20;99.90;;;;;;5068132;28;20193;-66
2020/12/14 00:55:43;;;;;;;47.20;17.13;;;3.20;99.90;;;;;;5064428;28;20237;-65
2020/12/14 00:58:11;;;;;;;42.10;16.87;;;3.20;99.90;;;;;;5084477;28;20204;-65
2020/12/14 01:00:37;;;;;;;44.90;16.27;;;3.20;99.90;;;;;;5100823;28;20817;-65
2020/12/14 01:03:04;;;;;;;46.43;16.27;;;3.30;99.90;;;;;;5090921;28;20204;-65
2020/12/14 01:05:31;;;;;;;46.40;16.73;;;3.20;99.90;;;;;;5091763;28;20279;-66
2020/12/14 01:07:57;;;;;;;47.53;16.77;;;3.30;99.90;;;;;;5073123;28;20528;-65
2020/12/14 01:10:24;;;;;;;47.83;16.97;;;3.30;99.90;;;;;;5068505;28;20223;-65
2020/12/14 01:12:50;;;;;;;41.83;16.37;;;3.30;99.90;;;;;;5064192;28;20197;-65
2020/12/14 01:15:18;;;;;;;42.23;15.33;;;3.30;99.90;;;;;;5044101;28;20233;-65
2020/12/14 01:17:44;;;;;;;38.40;14.73;;;3.30;99.90;;;;;;5033987;28;20233;-66
2020/12/14 01:20:14;;;;;;;41.07;16.07;;;3.30;99.90;;;;;;5034557;28;20268;-66
2020/12/14 01:22:41;;;;;;;38.50;16.13;;;3.30;99.90;;;;;;5032569;28;20624;-65
2020/12/14 01:25:07;;;;;;;39.07;15.27;;;3.20;99.90;;;;;;5035165;28;20249;-65
2020/12/14 01:27:34;;;;;;;38.97;15.13;;;3.20;99.90;;;;;;5041853;28;20345;-65
2020/12/14 01:30:00;;;;;;;34.73;14.47;;;3.20;99.90;;;;;;5043955;28;20206;-65
2020/12/14 01:32:28;;;;;;;33.17;14.53;;;3.20;99.90;;;;;;4987944;28;20265;-65
2020/12/14 01:34:54;;;;;;;33.87;14.63;;;3.20;99.90;;;;;;4987032;28;20266;-66
2020/12/14 01:37:21;;;;;;;38.67;14.57;;;3.20;99.90;;;;;;4948350;29;20754;-66
2020/12/14 01:39:47;;;;;;;31.93;13.67;;;3.20;99.90;;;;;;4965370;28;20629;-66
2020/12/14 01:42:14;;;;;;;45.40;16.23;;;3.30;99.90;;;;;;4923232;29;20487;-65
2020/12/14 01:44:41;;;;;;;46.20;16.40;;;3.30;99.90;;;;;;4869996;29;20257;-65
2020/12/14 01:47:07;;;;;;;43.43;16.90;;;3.30;99.90;;;;;;4889064;29;20223;-66
2020/12/14 01:49:35;;;;;;;52.97;18.27;;;3.30;99.90;;;;;;4890874;29;20263;-65
2020/12/14 01:52:01;;;;;;;47.33;18.67;;;3.30;99.90;;;;;;4881659;29;20243;-65
2020/12/14 01:54:34;;;;;;;47.80;18.60;;;3.30;99.90;;;;;;4905178;29;20230;-65
2020/12/14 01:57:02;;;;;;;44.30;17.97;;;3.20;99.90;;;;;;4897343;29;20269;-65
2020/12/14 01:59:29;;;;;;;37.53;15.90;;;3.20;99.90;;;;;;4902516;29;20221;-65
2020/12/14 02:01:55;;;;;;;42.23;17.20;;;3.20;99.90;;;;;;4911256;29;20269;-65
2020/12/14 02:04:22;;;;;;;39.47;16.00;;;3.20;99.90;;;;;;4926707;29;20214;-66
2020/12/14 02:06:50;;;;;;;42.37;16.47;;;3.30;99.90;;;;;;4913277;29;20206;-66
2020/12/14 02:09:16;;;;;;;41.90;16.87;;;3.30;99.90;;;;;;4943188;29;20668;-65
2020/12/14 02:11:43;;;;;;;41.50;17.27;;;3.30;99.90;;;;;;4947957;28;21232;-66
2020/12/14 02:14:10;;;;;;;42.33;17.53;;;3.20;99.90;;;;;;4946278;28;20229;-66
2020/12/14 02:16:36;;;;;;;47.73;17.27;;;3.20;99.90;;;;;;4998992;28;20222;-66
2020/12/14 02:19:03;;;;;;;48.77;18.07;;;3.20;99.90;;;;;;5006273;28;20211;-66
2020/12/14 02:21:30;;;;;;;45.50;18.70;;;3.20;99.90;;;;;;5006803;28;20743;-66
2020/12/14 02:23:57;;;;;;;41.87;17.13;;;3.10;99.90;;;;;;5072148;28;20300;-65
2020/12/14 02:26:25;;;;;;;36.57;16.17;;;3.10;99.90;;;;;;5025211;28;20663;-66
2020/12/14 02:28:51;;;;;;;37.07;16.50;;;3.10;99.90;;;;;;4985446;28;20204;-65
2020/12/14 02:31:18;;;;;;;37.20;16.30;;;3.10;99.90;;;;;;4981423;28;20253;-66
2020/12/14 02:33:44;;;;;;;38.53;15.80;;;3.10;99.90;;;;;;4959012;28;20268;-66
2020/12/14 02:36:11;;;;;;;39.57;15.57;;;3.10;99.90;;;;;;4952292;29;20237;-66
2020/12/14 02:38:37;;;;;;;35.57;16.50;;;3.10;99.90;;;;;;4932928;29;20213;-66
2020/12/14 02:41:04;;;;;;;42.10;17.90;;;3.10;99.90;;;;;;4912648;29;20214;-66
2020/12/14 02:43:31;;;;;;;41.30;18.00;;;3.10;99.90;;;;;;4905432;29;20219;-66
2020/12/14 02:45:58;;;;;;;43.70;17.20;;;3.10;99.90;;;;;;4912555;29;20309;-66
2020/12/14 02:48:24;;;;;;;41.73;18.17;;;3.10;99.90;;;;;;4911438;29;20218;-66
2020/12/14 02:50:51;;;;;;;40.47;18.47;;;3.10;99.90;;;;;;4913036;29;20266;-66
2020/12/14 02:53:17;;;;;;;48.57;18.97;;;3.10;99.90;;;;;;4914333;29;20222;-66
2020/12/14 02:55:44;;;;;;;48.83;18.90;;;3.10;99.90;;;;;;4926760;29;20324;-66
2020/12/14 02:58:12;;;;;;;42.33;17.60;;;3.10;99.90;;;;;;4962958;28;20672;-66
2020/12/14 03:00:39;;;;;;;36.03;15.90;;;3.10;99.90;;;;;;4986824;28;20594;-66
2020/12/14 03:03:06;;;;;;;45.33;17.17;;;3.10;99.90;;;;;;4989822;28;20227;-66
2020/12/14 03:05:32;;;;;;;38.73;15.90;;;3.10;99.90;;;;;;4968379;28;20578;-66
2020/12/14 03:07:59;;;;;;;47.17;17.93;;;3.10;99.90;;;;;;4969914;28;20204;-66
2020/12/14 03:10:25;;;;;;;39.87;16.57;;;3.10;99.90;;;;;;4988492;28;20581;-65
2020/12/14 03:12:52;;;;;;;32.30;14.53;;;3.10;99.90;;;;;;5031037;28;20203;-66
2020/12/14 03:15:19;;;;;;;36.63;15.57;;;3.20;99.90;;;;;;5029187;28;20284;-66
2020/12/14 03:17:46;;;;;;;35.77;15.73;;;3.20;99.90;;;;;;5029942;28;20206;-66
2020/12/14 03:20:13;;;;;;;34.20;14.90;;;3.20;99.90;;;;;;4988283;28;20211;-66
2020/12/14 03:22:39;;;;;;;33.10;14.10;;;3.20;99.90;;;;;;4989282;28;20980;-66
2020/12/14 03:25:06;;;;;;;39.67;16.20;;;3.20;99.90;;;;;;4998751;28;20303;-67
2020/12/14 03:27:32;;;;;;;42.03;16.43;;;3.20;99.90;;;;;;4988883;28;20211;-66
2020/12/14 03:29:59;;;;;;;42.87;17.40;;;3.20;99.90;;;;;;4992701;28;20245;-65
2020/12/14 03:32:25;;;;;;;47.30;16.90;;;3.20;99.90;;;;;;4958465;28;20205;-65
2020/12/14 03:34:52;;;;;;;42.27;17.17;;;3.20;99.90;;;;;;4948665;29;20686;-66
2020/12/14 03:37:19;;;;;;;41.33;17.77;;;3.20;99.90;;;;;;4949232;29;20251;-65
2020/12/14 03:39:45;;;;;;;45.97;17.43;;;3.20;99.90;;;;;;4946543;29;20407;-66
2020/12/14 03:42:12;;;;;;;43.50;17.40;;;3.20;99.90;;;;;;4932273;29;20218;-65
2020/12/14 03:44:38;;;;;;;42.13;17.80;;;3.20;99.90;;;;;;4931629;29;20218;-66
2020/12/14 03:47:05;;;;;;;42.53;17.83;;;3.20;99.90;;;;;;4947447;29;20718;-65
2020/12/14 03:49:31;;;;;;;47.80;19.57;;;3.20;99.90;;;;;;4950203;28;20571;-66
2020/12/14 03:51:58;;;;;;;49.60;20.53;;;3.30;99.90;;;;;;4965012;28;20287;-66
2020/12/14 03:54:25;;;;;;;38.67;17.60;;;3.20;99.90;;;;;;4969832;28;20327;-66
2020/12/14 03:56:51;;;;;;;44.73;18.43;;;3.20;99.90;;;;;;4968690;28;20228;-66
2020/12/14 03:59:18;;;;;;;44.90;18.90;;;3.30;99.90;;;;;;4970953;28;20303;-66
2020/12/14 04:01:45;;;;;;;39.97;17.83;;;3.30;99.90;;;;;;4973119;28;20723;-66
2020/12/14 04:04:11;;;;;;;46.60;19.50;;;3.30;99.90;;;;;;5036674;28;20259;-65
2020/12/14 04:06:38;;;;;;;51.00;20.40;;;3.30;99.90;;;;;;5055782;28;20209;-66
2020/12/14 04:09:05;;;;;;;72.93;25.30;;;3.30;99.90;;;;;;5068270;28;20209;-66
2020/12/14 04:11:31;;;;;;;70.53;25.03;;;3.30;99.90;;;;;;5066872;28;20217;-66
2020/12/14 04:13:58;;;;;;;162.70;40.63;;;3.30;99.90;;;;;;5067985;28;20201;-66
2020/12/14 04:16:25;;;;;;;258.23;59.63;;;3.30;99.90;;;;;;5068170;28;20240;-66
2020/12/14 04:18:51;;;;;;;313.20;71.47;;;3.30;99.90;;;;;;5046867;28;20644;-66
2020/12/14 04:21:18;;;;;;;250.00;65.33;;;3.30;99.90;;;;;;5047992;28;20263;-67
2020/12/14 04:23:45;;;;;;;228.17;64.10;;;3.30;99.90;;;;;;5041886;28;20239;-66
2020/12/14 04:26:14;;;;;;;187.27;56.97;;;3.30;99.90;;;;;;5047089;28;20580;-66
2020/12/14 04:28:41;;;;;;;159.53;53.07;;;3.30;99.90;;;;;;5037485;28;20283;-65
2020/12/14 04:31:08;;;;;;;113.70;42.13;;;3.30;99.90;;;;;;5047787;28;20217;-66
2020/12/14 04:33:35;;;;;;;92.47;35.10;;;3.30;99.90;;;;;;5048175;28;20680;-65
2020/12/14 04:36:01;;;;;;;78.97;30.97;;;3.20;99.90;;;;;;5048000;28;20213;-65
2020/12/14 04:38:28;;;;;;;68.40;27.87;;;3.20;99.90;;;;;;5048110;28;20210;-65
2020/12/14 04:40:54;;;;;;;68.80;27.10;;;3.30;99.90;;;;;;5046845;28;20221;-65
2020/12/14 04:43:23;;;;;;;58.93;24.70;;;3.20;99.90;;;;;;5047488;28;20194;-66
2020/12/14 04:45:50;;;;;;;55.00;22.47;;;3.20;99.90;;;;;;5047785;28;20213;-65
2020/12/14 04:48:17;;;;;;;44.93;20.23;;;3.20;99.90;;;;;;5047893;28;20290;-66
2020/12/14 04:50:44;;;;;;;45.70;19.37;;;3.20;99.90;;;;;;5062946;28;20583;-66
2020/12/14 04:53:11;;;;;;;46.20;19.30;;;3.20;99.90;;;;;;5064073;28;20231;-66
2020/12/14 04:55:37;;;;;;;48.33;18.53;;;3.20;99.90;;;;;;5069220;28;20208;-65
2020/12/14 04:58:06;;;;;;;41.53;18.30;;;3.20;99.90;;;;;;5069236;28;20197;-66
2020/12/14 05:00:34;;;;;;;46.10;18.50;;;3.20;99.90;;;;;;5070539;28;20193;-65
2020/12/14 05:03:00;;;;;;;44.90;18.77;;;3.20;99.90;;;;;;5070030;28;20201;-66
2020/12/14 05:05:27;;;;;;;47.30;19.20;;;3.20;99.90;;;;;;5069834;28;20193;-65
2020/12/14 05:07:55;;;;;;;44.47;18.63;;;3.20;99.90;;;;;;5066982;28;20316;-65
2020/12/14 05:10:24;;;;;;;40.60;17.87;;;3.20;99.90;;;;;;5065977;28;20366;-66
2020/12/14 05:12:51;;;;;;;39.53;17.37;;;3.20;99.90;;;;;;5066873;28;20208;-66
2020/12/14 05:15:22;;;;;;;45.50;18.23;;;3.20;99.90;;;;;;5067284;28;20638;-66
2020/12/14 05:17:50;;;;;;;52.60;20.47;;;3.20;99.90;;;;;;5026982;28;20264;-66
2020/12/14 05:20:18;;;;;;;44.20;19.37;;;3.10;99.90;;;;;;5027650;28;20238;-66
2020/12/14 05:22:59;;;;;;;46.20;18.40;;;3.10;99.90;;;;;;4988087;28;20207;-66
2020/12/14 05:25:26;;;;;;;41.27;17.67;;;3.10;99.90;;;;;;4986999;28;20209;-66
2020/12/14 05:28:04;;;;;;;49.37;19.97;;;3.10;99.90;;;;;;4970097;28;20301;-66
2020/12/14 05:30:38;;;;;;;41.20;17.90;;;3.10;99.90;;;;;;4981436;28;20207;-66
2020/12/14 05:33:07;;;;;;;45.03;18.63;;;3.20;99.90;;;;;;4977845;28;20228;-66
2020/12/14 05:35:36;;;;;;;47.67;20.63;;;3.20;99.90;;;;;;4968923;28;20212;-66
2020/12/14 05:38:30;;;;;;;52.53;20.50;;;3.20;99.90;;;;;;4977589;28;20290;-65
2020/12/14 05:40:58;;;;;;;46.90;20.03;;;3.10;99.90;;;;;;4910133;29;20274;-66
2020/12/14 05:43:26;;;;;;;49.53;19.60;;;3.10;99.90;;;;;;4911060;29;20263;-65
2020/12/14 05:45:54;;;;;;;48.00;19.80;;;3.10;99.90;;;;;;4911506;29;20203;-66
2020/12/14 05:48:32;;;;;;;47.77;20.47;;;3.10;99.90;;;;;;4913419;29;20210;-65
2020/12/14 05:51:00;;;;;;;45.40;20.27;;;3.10;99.90;;;;;;4929489;29;20202;-65
2020/12/14 05:53:34;;;;;;;47.47;21.13;;;3.20;99.90;;;;;;4946549;28;20267;-66
2020/12/14 05:56:02;;;;;;;48.73;20.43;;;3.10;99.90;;;;;;4967141;28;20299;-65
2020/12/14 05:58:30;;;;;;;47.80;21.67;;;3.20;99.90;;;;;;4967743;28;20296;-66
2020/12/14 06:00:57;;;;;;;54.60;22.77;;;3.10;99.90;;;;;;4956696;28;20231;-66
2020/12/14 06:03:25;;;;;;;60.23;23.97;;;3.10;99.90;;;;;;4949485;28;20692;-65
2020/12/14 06:05:58;;;;;;;57.03;23.50;;;3.10;99.90;;;;;;4953035;29;20735;-65
2020/12/14 06:09:02;;;;;;;56.60;23.57;;;3.10;99.90;;;;;;4952965;29;20256;-65
2020/12/14 06:11:28;;;;;;;48.47;21.43;;;3.00;99.90;;;;;;4951408;29;20263;-65
2020/12/14 06:13:57;;;;;;;46.87;20.43;;;3.00;99.90;;;;;;4951613;29;20205;-65
2020/12/14 06:16:25;;;;;;;46.47;20.83;;;3.00;99.90;;;;;;4988385;28;20413;-65
2020/12/14 06:18:52;;;;;;;53.00;21.90;;;3.00;99.90;;;;;;5050347;28;20213;-66
2020/12/14 06:21:24;;;;;;;48.97;21.97;;;2.90;99.90;;;;;;5054253;28;20590;-66
2020/12/14 06:23:52;;;;;;;50.40;20.97;;;2.80;99.90;;;;;;5070950;28;20298;-66
2020/12/14 06:26:23;;;;;;;54.50;23.80;;;2.80;99.90;;;;;;5068815;28;20683;-66
2020/12/14 06:28:51;;;;;;;50.63;21.73;;;2.80;99.90;;;;;;5079967;28;20341;-66
2020/12/14 06:31:34;;;;;;;51.07;19.60;;;2.70;99.90;;;;;;5084723;28;20712;-65
2020/12/14 06:34:03;;;;;;;41.93;18.37;;;2.70;99.90;;;;;;5067372;28;20544;-65
2020/12/14 06:36:38;;;;;;;52.77;21.50;;;2.70;99.90;;;;;;5067841;28;20267;-66
2020/12/14 06:39:25;;;;;;;48.97;21.30;;;2.70;99.90;;;;;;5068732;28;20360;-66
2020/12/14 06:41:53;;;;;;;48.10;21.03;;;2.80;99.90;;;;;;5045680;28;20256;-65
2020/12/14 06:44:19;;;;;;;43.00;18.70;;;2.70;99.90;;;;;;5053335;28;20270;-65
2020/12/14 06:46:47;;;;;;;46.93;19.70;;;2.80;99.90;;;;;;5060389;28;20652;-67
2020/12/14 06:49:13;;;;;;;44.00;18.83;;;2.80;99.90;;;;;;5030436;28;20253;-67
2020/12/14 06:51:51;;;;;;;46.13;18.47;;;2.80;99.90;;;;;;5030637;28;20639;-66
2020/12/14 06:54:39;;;;;;;53.77;18.73;;;2.90;99.90;;;;;;5032544;28;20225;-67
2020/12/14 06:57:06;;;;;;;43.53;17.23;;;2.90;99.90;;;;;;5037374;28;20206;-66
2020/12/14 06:59:33;;;;;;;44.90;17.87;;;2.90;99.90;;;;;;5016467;28;20261;-67
2020/12/14 07:02:01;;;;;;;38.70;16.63;;;3.00;99.90;;;;;;4984930;28;20287;-66
2020/12/14 07:04:39;;;;;;;46.27;18.23;;;3.00;99.90;;;;;;4990071;28;20757;-66
2020/12/14 07:07:34;;;;;;;45.17;19.10;;;3.10;99.90;;;;;;4990829;28;20261;-66
2020/12/14 07:10:15;;;;;;;55.43;22.40;;;3.10;99.90;;;;;;4988836;28;20214;-66
2020/12/14 07:12:48;;;;;;;52.37;22.37;;;3.10;99.90;;;;;;4979474;28;20203;-67
2020/12/14 07:15:28;;;;;;;53.87;22.50;;;3.10;99.90;;;;;;4972225;28;20581;-66
2020/12/14 07:18:04;;;;;;;51.57;22.40;;;3.10;99.90;;;;;;4951507;29;20678;-66
2020/12/14 07:20:32;;;;;;;48.83;22.03;;;3.10;99.90;;;;;;4951092;28;20576;-67
2020/12/14 07:23:06;;;;;;;50.67;20.83;;;3.20;99.90;;;;;;4951755;28;20205;-67
2020/12/14 07:25:33;;;;;;;50.60;22.10;;;3.20;99.90;;;;;;4970557;28;20215;-67
2020/12/14 07:28:01;;;;;;;47.80;19.20;;;3.30;99.90;;;;;;4953148;28;20209;-67
2020/12/14 07:30:27;;;;;;;46.57;19.63;;;3.30;99.90;;;;;;4967974;28;20207;-67
2020/12/14 07:32:54;;;;;;;52.60;20.97;;;3.30;99.90;;;;;;4979188;28;20200;-67
2020/12/14 07:35:21;;;;;;;58.57;23.80;;;3.40;99.90;;;;;;4970387;28;20228;-66
2020/12/14 07:37:47;;;;;;;58.87;23.97;;;3.50;99.90;;;;;;4970533;28;20330;-66
2020/12/14 07:40:15;;;;;;;59.57;24.33;;;3.50;99.90;;;;;;4975056;28;20208;-67
2020/12/14 07:42:44;;;;;;;54.23;21.20;;;3.50;99.90;;;;;;5000453;28;20300;-67
2020/12/14 07:45:13;;;;;;;46.93;20.87;;;3.60;99.90;;;;;;5007399;28;20230;-67
2020/12/14 07:47:40;;;;;;;51.07;21.33;;;3.60;99.90;;;;;;4998913;28;20209;-67
2020/12/14 07:50:09;;;;;;;50.87;22.27;;;3.60;99.90;;;;;;5027129;28;20260;-66
2020/12/14 07:52:35;;;;;;;51.93;23.37;;;3.70;99.90;;;;;;5011925;28;20261;-67
2020/12/14 07:55:03;;;;;;;55.10;23.53;;;3.70;99.90;;;;;;5009980;28;20597;-67
2020/12/14 07:57:32;;;;;;;58.73;24.73;;;3.70;99.90;;;;;;4989994;28;20514;-67
2020/12/14 07:59:59;;;;;;;67.50;26.37;;;3.70;99.90;;;;;;5002069;28;20202;-67
2020/12/14 08:02:28;;;;;;;56.13;25.63;;;3.70;99.90;;;;;;5007767;28;20307;-66
2020/12/14 08:05:00;;;;;;;56.50;24.90;;;3.70;99.90;;;;;;5038468;28;20399;-67
2020/12/14 08:07:34;;;;;;;51.83;23.30;;;3.80;99.90;;;;;;5053496;28;20224;-66
2020/12/14 08:10:02;;;;;;;47.20;21.33;;;3.80;99.90;;;;;;5051109;28;20209;-66
2020/12/14 08:12:29;;;;;;;56.73;23.53;;;3.90;99.90;;;;;;5052429;28;20235;-67
2020/12/14 08:14:57;;;;;;;46.17;21.77;;;4.00;99.90;;;;;;5051046;28;20265;-66
2020/12/14 08:17:24;;;;;;;50.47;22.40;;;4.00;99.90;;;;;;5049059;28;20645;-67
2020/12/14 08:19:51;;;;;;;51.93;22.67;;;4.10;99.90;;;;;;5048689;28;20235;-67
2020/12/14 08:22:19;;;;;;;47.17;21.17;;;4.10;99.90;;;;;;5033818;28;20213;-66
2020/12/14 08:24:55;;;;;;;48.63;20.43;;;4.20;99.90;;;;;;5030168;28;20233;-66
2020/12/14 08:27:35;;;;;;;51.87;21.73;;;4.30;99.90;;;;;;5021837;28;20746;-66
2020/12/14 08:30:06;;;;;;;47.63;21.40;;;4.40;99.90;;;;;;5047632;28;20725;-67
2020/12/14 08:32:32;;;;;;;51.07;21.67;;;4.40;99.90;;;;;;5027421;28;20431;-65
2020/12/14 08:35:01;;;;;;;55.30;23.77;;;4.40;99.90;;;;;;5059435;28;20209;-65
2020/12/14 08:37:28;;;;;;;53.17;23.13;;;4.50;99.90;;;;;;5059747;28;20213;-66
2020/12/14 08:40:04;;;;;;;56.27;24.43;;;4.50;99.90;;;;;;5053788;28;20301;-65
2020/12/14 08:42:30;;;;;;;53.83;24.83;;;4.50;99.90;;;;;;5035035;28;20193;-68
2020/12/14 08:45:12;;;;;;;67.63;26.80;;;4.60;99.90;;;;;;4996003;28;20216;-65
2020/12/14 08:47:40;;;;;;;55.33;25.33;;;4.70;99.90;;;;;;4989983;28;20219;-65
2020/12/14 08:50:08;;;;;;;50.30;22.27;;;4.70;99.90;;;;;;4990942;28;20215;-64
2020/12/14 08:52:35;;;;;;;48.77;20.57;;;4.70;99.90;;;;;;4993819;28;20689;-67
2020/12/14 08:55:02;;;;;;;42.70;18.87;;;4.70;99.90;;;;;;4991541;28;20444;-66
2020/12/14 08:57:31;;;;;;;43.50;18.50;;;4.80;99.90;;;;;;4991249;28;20661;-67
2020/12/14 09:00:06;;;;;;;36.77;17.20;;;4.80;99.90;;;;;;4989983;28;20266;-65
2020/12/14 09:02:34;;;;;;;35.97;16.60;;;4.90;99.90;;;;;;4985485;28;20238;-65
2020/12/14 09:05:13;;;;;;;37.20;16.47;;;4.90;99.90;;;;;;4984539;28;20600;-65
2020/12/14 09:07:40;;;;;;;32.77;14.23;;;5.00;99.90;;;;;;4984920;28;20200;-65
2020/12/14 09:10:14;;;;;;;34.27;15.87;;;5.10;99.90;;;;;;4994499;28;20208;-65
2020/12/14 09:12:41;;;;;;;28.43;13.07;;;5.20;99.90;;;;;;5003806;28;20287;-66
2020/12/14 09:15:08;;;;;;;33.00;13.47;;;5.30;99.90;;;;;;4967130;28;20493;-66
2020/12/14 09:17:36;;;;;;;27.37;13.30;;;5.40;99.90;;;;;;4983649;28;20335;-65
2020/12/14 09:20:07;;;;;;;28.40;12.73;;;5.50;99.90;;;;;;5001399;28;20207;-65
2020/12/14 09:22:33;;;;;;;25.83;11.57;;;5.60;99.90;;;;;;5021823;28;20746;-65
2020/12/14 09:25:00;;;;;;;24.63;11.53;;;5.70;99.90;;;;;;5020086;28;20637;-66
2020/12/14 09:27:27;;;;;;;32.00;12.97;;;5.70;99.90;;;;;;5022012;28;20474;-65
2020/12/14 09:29:53;;;;;;;32.90;13.70;;;5.80;99.90;;;;;;5022125;28;20216;-65
2020/12/14 09:32:20;;;;;;;32.57;14.27;;;5.80;99.90;;;;;;5020540;28;20703;-65
2020/12/14 09:34:47;;;;;;;29.13;13.50;;;5.80;99.90;;;;;;5000860;28;20674;-65
2020/12/14 09:37:14;;;;;;;27.70;12.57;;;5.80;99.90;;;;;;5001491;28;20336;-65
2020/12/14 09:39:41;;;;;;;27.17;12.47;;;5.80;99.90;;;;;;5005094;28;20647;-64
2020/12/14 09:42:07;;;;;;;29.33;12.80;;;5.90;99.90;;;;;;5006743;28;20203;-65
2020/12/14 09:44:35;;;;;;;27.80;11.83;;;6.00;99.90;;;;;;4984536;28;20201;-65
2020/12/14 09:47:04;;;;;;;24.60;12.07;;;6.00;99.90;;;;;;5020141;28;20238;-65
2020/12/14 09:49:30;;;;;;;28.00;12.00;;;6.00;99.90;;;;;;5024421;28;20256;-65
2020/12/14 09:51:58;;;;;;;28.20;12.93;;;6.00;99.90;;;;;;5026018;28;20308;-65
2020/12/14 09:54:24;;;;;;;28.37;13.20;;;6.00;99.90;;;;;;5024640;28;20236;-65
2020/12/14 09:56:57;;;;;;;27.07;13.17;;;6.00;99.90;;;;;;5024938;28;20213;-65
2020/12/14 09:59:26;;;;;;;26.80;12.40;;;6.00;99.90;;;;;;5023341;28;20641;-65
2020/12/14 10:01:53;;;;;;;23.30;11.53;;;6.10;99.90;;;;;;5023486;28;20240;-66
2020/12/14 10:04:19;;;;;;;23.90;11.57;;;6.10;99.90;;;;;;5020774;28;20204;-65
2020/12/14 10:06:48;;;;;;;30.53;12.73;;;6.10;99.90;;;;;;5041428;28;20214;-65
2020/12/14 10:09:16;;;;;;;23.63;11.93;;;6.20;99.90;;;;;;5044042;28;20303;-65
2020/12/14 10:11:42;;;;;;;23.13;11.70;;;6.20;99.90;;;;;;5048427;28;20638;-65
2020/12/14 10:14:09;;;;;;;23.23;11.07;;;6.20;99.90;;;;;;5001610;28;20205;-65
2020/12/14 10:16:36;;;;;;;22.23;12.20;;;6.20;99.90;;;;;;5033973;28;20227;-65
2020/12/14 10:19:03;;;;;;;21.87;11.40;;;6.20;99.90;;;;;;5044501;28;20221;-65
2020/12/14 10:21:30;;;;;;;27.57;11.70;;;6.10;99.90;;;;;;5039898;28;20216;-64
2020/12/14 10:23:56;;;;;;;24.43;10.87;;;5.90;99.90;;;;;;5034340;28;20231;-65
2020/12/14 10:26:25;;;;;;;21.87;10.57;;;5.80;99.90;;;;;;5022743;28;20213;-65
2020/12/14 10:28:53;;;;;;;22.60;11.43;;;5.70;99.90;;;;;;5024462;28;20208;-65
2020/12/14 10:31:19;;;;;;;23.17;10.87;;;5.50;99.90;;;;;;5023811;28;20250;-65
2020/12/14 10:33:47;;;;;;;19.53;9.37;;;5.40;99.90;;;;;;5023554;28;20228;-65
2020/12/14 10:36:18;;;;;;;22.50;9.80;;;5.40;99.90;;;;;;5024004;28;20228;-67
2020/12/14 10:38:46;;;;;;;20.40;9.70;;;5.30;99.90;;;;;;5005627;28;20637;-65
2020/12/14 10:41:17;;;;;;;21.80;9.70;;;5.20;99.90;;;;;;5003407;28;20710;-66
2020/12/14 10:43:45;;;;;;;25.60;10.40;;;5.20;99.90;;;;;;4983981;28;20229;-65
2020/12/14 10:46:12;;;;;;;22.47;10.23;;;5.10;99.90;;;;;;5004251;28;20635;-65
2020/12/14 10:48:39;;;;;;;28.03;11.63;;;5.00;99.90;;;;;;4978068;28;20237;-65
2020/12/14 10:51:05;;;;;;;28.40;12.00;;;4.90;99.90;;;;;;4985024;28;20695;-66
2020/12/14 10:53:32;;;;;;;23.20;10.50;;;4.80;99.90;;;;;;4978990;28;20295;-65
2020/12/14 10:56:00;;;;;;;21.93;10.23;;;4.70;99.90;;;;;;4975334;28;20243;-65
2020/12/14 10:58:26;;;;;;;20.27;10.33;;;4.70;99.90;;;;;;4978336;28;20220;-66
2020/12/14 11:00:57;;;;;;;24.47;11.03;;;4.60;99.90;;;;;;4982704;28;20204;-65
2020/12/14 11:03:26;;;;;;;24.67;11.03;;;4.60;99.90;;;;;;4982358;28;20207;-65
2020/12/14 11:05:53;;;;;;;24.33;11.03;;;4.60;99.90;;;;;;4965979;28;20205;-65
2020/12/14 11:08:20;;;;;;;28.20;12.17;;;4.50;99.90;;;;;;4928339;29;20204;-65
2020/12/14 11:10:47;;;;;;;22.83;10.97;;;4.50;99.90;;;;;;4945250;28;20627;-65
2020/12/14 11:13:13;;;;;;;21.27;11.40;;;4.50;99.90;;;;;;4947974;28;20590;-65
2020/12/14 11:15:40;;;;;;;24.37;11.13;;;4.40;99.90;;;;;;4946150;28;20572;-65
2020/12/14 11:18:07;;;;;;;21.73;10.13;;;4.40;99.90;;;;;;4946703;28;20221;-65
2020/12/14 11:20:34;;;;;;;21.60;9.83;;;4.50;99.90;;;;;;4947631;28;20209;-65
2020/12/14 11:23:02;;;;;;;19.33;9.27;;;4.50;99.90;;;;;;4967670;28;20222;-65
2020/12/14 11:25:29;;;;;;;20.67;9.87;;;4.50;99.90;;;;;;4987679;28;20271;-65
2020/12/14 11:27:55;;;;;;;20.17;9.87;;;4.50;99.90;;;;;;4989355;28;21013;-65
2020/12/14 11:30:22;;;;;;;25.77;11.60;;;4.60;99.90;;;;;;4989643;28;20338;-65
2020/12/14 11:32:49;;;;;;;25.37;9.73;;;4.60;99.90;;;;;;4985233;28;20211;-66
2020/12/14 11:35:17;;;;;;;21.50;8.87;;;4.70;99.90;;;;;;4981595;28;20364;-64
2020/12/14 11:37:47;;;;;;;15.43;8.20;;;4.70;99.90;;;;;;4984654;28;20286;-65
2020/12/14 11:40:14;;;;;;;15.17;8.07;;;4.70;99.90;;;;;;5016119;28;20206;-65
2020/12/14 11:42:41;;;;;;;18.57;9.17;;;4.80;99.90;;;;;;5004569;28;20254;-65
2020/12/14 11:45:09;;;;;;;19.27;9.20;;;4.80;99.90;;;;;;5001046;28;20210;-65
2020/12/14 11:47:38;;;;;;;21.60;9.43;;;4.80;99.90;;;;;;5003207;28;20717;-65
2020/12/14 11:50:07;;;;;;;21.10;9.77;;;4.80;99.90;;;;;;5000217;28;20227;-65
2020/12/14 11:52:35;;;;;;;21.23;9.50;;;4.80;99.90;;;;;;4997273;28;20230;-65
2020/12/14 11:55:06;;;;;;;16.57;8.37;;;4.90;99.90;;;;;;5002048;28;20717;-66
2020/12/14 11:57:32;;;;;;;20.10;9.30;;;4.90;99.90;;;;;;5002747;28;20199;-66
2020/12/14 11:59:59;;;;;;;18.20;7.90;;;4.90;99.90;;;;;;5003265;28;20221;-66
2020/12/14 12:02:26;;;;;;;15.43;7.90;;;4.90;99.90;;;;;;5001550;28;20335;-65
2020/12/14 12:04:52;;;;;;;13.93;7.70;;;4.90;99.90;;;;;;5001049;28;20208;-66
2020/12/14 12:07:19;;;;;;;15.20;7.20;;;4.90;99.90;;;;;;5023727;28;20192;-65
2020/12/14 12:09:47;;;;;;;18.23;7.90;;;4.90;99.90;;;;;;5016861;28;20310;-65
2020/12/14 12:12:14;;;;;;;22.23;7.60;;;4.90;99.90;;;;;;5037010;28;20198;-66
2020/12/14 12:14:40;;;;;;;21.80;9.63;;;4.90;99.90;;;;;;5059626;28;20216;-66
2020/12/14 12:17:07;;;;;;;18.93;8.97;;;4.80;99.90;;;;;;5063437;28;20270;-65
2020/12/14 12:19:33;;;;;;;19.00;8.73;;;4.80;99.90;;;;;;5071669;28;20587;-65
2020/12/14 12:22:00;;;;;;;14.77;7.30;;;4.80;99.90;;;;;;5041858;28;20202;-65
2020/12/14 12:24:27;;;;;;;13.43;7.23;;;4.70;99.90;;;;;;5021890;28;20230;-66
2020/12/14 12:26:54;;;;;;;13.20;6.73;;;4.70;99.90;;;;;;5023676;28;20724;-65
2020/12/14 12:29:21;;;;;;;12.37;6.70;;;4.70;99.90;;;;;;4973390;28;20303;-65
2020/12/14 12:31:49;;;;;;;8.53;5.37;;;4.70;99.90;;;;;;4963581;28;20216;-66
2020/12/14 12:34:16;;;;;;;9.50;4.80;;;4.70;99.90;;;;;;4964789;28;20216;-66
2020/12/14 12:36:49;;;;;;;10.63;6.00;;;4.70;99.90;;;;;;4965160;28;20453;-66
2020/12/14 12:39:15;;;;;;;9.07;5.33;;;4.70;99.90;;;;;;4968663;28;20205;-66
2020/12/14 12:41:45;;;;;;;11.93;6.20;;;4.80;99.90;;;;;;4962602;28;20316;-66
2020/12/14 12:44:12;;;;;;;12.23;6.33;;;4.80;99.90;;;;;;4976360;28;20638;-66